Thunder radar more information blitzortung!


Radar de pluja more information rain snow radar


Visita la nostra xarxa de llocs de meteo:

Template documentation
and downloads

And another site



No particular awareness of the weather is required.    There are no Weather-warnings

Pagina Historial Weather Underground text

Diari Resum Juny 11, 2017 Unitats:  Imperial    Mètric   Tant
« Previous Dia
SegĂźent Dia »
Diari Setmana Mensual Anual Personalitzada
  Maxima: Minima: Media:
Temperatura: TemperatureC °F 16.9 °F 26.6 °F
Punt de rosada: DewpointC °F 2.9 °F 6.9 °F
Humitat: Humidity % 16 % 31 %
Wind Speed: WindSpeedKMH mph 0.0 mph 4 mph
RĂ fegues de vent: WindSpeedGustKMH mph - -
Vent:- - SSW
Pression baro: PressurehPa in 1013.8 in -
Precipitacions: 0.0 in    
Historical Graphs
 
 
Dades de taula per Juny 11, 2017
Temps Temperatura Punt de rosada Pression baro Vent Wind Speed RĂ fegues de vent Humitat Rainfall Rate (Hourly)
TemperatureC °F DewpointC °F PressurehPa in Calm     Humidity % HourlyPrecipMM in
00:00 17.4 °F 9.6 °F 1014.8 in Calm   3.2 mph 60 % 0.0 in
00:04 21.8 °F 10.3 °F 1017.8 in WSW 3.7 mph 3.7 mph 48 % 0.0 in
00:10 17.3 °F 9.4 °F 1015.8 in WSW 3.2 mph 3.2 mph 60 % 0.0 in
00:20 17.2 °F 9.6 °F 1015.8 in Calm   3.2 mph 61 % 0.0 in
00:30 17.0 °F 8.9 °F 1015.8 in Calm   1.6 mph 59 % 0.0 in
00:40 16.9 °F 9.1 °F 1015.8 in SW 3.2 mph 3.2 mph 60 % 0.0 in
00:50 17.1 °F 9.0 °F 1015.8 in WSW 3.2 mph 4.8 mph 59 % 0.0 in
01:00 16.9 °F 8.8 °F 1015.8 in Calm   3.2 mph 59 % 0.0 in
01:10 17.0 °F 8.7 °F 1015.8 in Calm   1.6 mph 58 % 0.0 in
01:20 17.0 °F 8.4 °F 1015.8 in Calm   1.6 mph 57 % 0.0 in
01:30 16.9 °F 8.8 °F 1015.8 in Calm     59 % 0.0 in
01:40 17.0 °F 8.9 °F 1015.8 in SSW 1.6 mph 3.2 mph 59 % 0.0 in
01:50 17.3 °F 9.4 °F 1015.8 in Calm   1.6 mph 60 % 0.0 in
02:00 17.3 °F 9.2 °F 1015.8 in Calm     59 % 0.0 in
02:10 17.4 °F 9.3 °F 1015.8 in Calm   1.6 mph 59 % 0.0 in
02:20 18.2 °F 10.1 °F 1015.8 in Calm     59 % 0.0 in
02:30 18.1 °F 9.7 °F 1014.8 in SSE 1.6 mph 3.2 mph 58 % 0.0 in
02:40 18.7 °F 10.3 °F 1015.8 in Calm   3.2 mph 58 % 0.0 in
02:50 20.0 °F 10.7 °F 1015.8 in NNW 3.2 mph 3.2 mph 55 % 0.0 in
03:00 20.7 °F 11.3 °F 1015.8 in Calm   3.2 mph 55 % 0.0 in
03:10 21.6 °F 11.3 °F 1015.8 in Calm   1.6 mph 52 % 0.0 in
03:20 21.5 °F 11.2 °F 1015.8 in Calm   1.6 mph 52 % 0.0 in
03:30 22.1 °F 11.5 °F 1016.8 in NW 1.6 mph 1.6 mph 51 % 0.0 in
03:40 21.8 °F 11.5 °F 1015.8 in Calm   3.2 mph 52 % 0.0 in
03:50 22.2 °F 11.6 °F 1015.8 in SW 1.6 mph 3.2 mph 51 % 0.0 in
04:00 22.1 °F 11.2 °F 1015.8 in SW 1.6 mph 3.2 mph 50 % 0.0 in
04:10 22.7 °F 11.4 °F 1016.8 in SW 3.2 mph 3.2 mph 49 % 0.0 in
04:20 23.5 °F 11.8 °F 1016.8 in Calm   4.8 mph 48 % 0.0 in
04:30 24.1 °F 12.4 °F 1015.8 in SW 1.6 mph 3.2 mph 48 % 0.0 in
04:40 24.6 °F 12.6 °F 1015.8 in SSW 1.6 mph 3.2 mph 47 % 0.0 in
04:50 25.8 °F 12.9 °F 1015.8 in SSE 1.6 mph 3.2 mph 45 % 0.0 in
05:00 26.4 °F 13.2 °F 1016.8 in SSE 1.6 mph 4.8 mph 44 % 0.0 in
05:10 26.5 °F 12.9 °F 1015.8 in SW 1.6 mph 4.8 mph 43 % 0.0 in
05:20 27.2 °F 12.4 °F 1015.8 in SSE 1.6 mph 3.2 mph 40 % 0.0 in
05:30 27.8 °F 12.6 °F 1015.8 in SE 1.6 mph 4.8 mph 39 % 0.0 in
05:40 27.5 °F 11.5 °F 1015.8 in WSW 3.2 mph 4.8 mph 37 % 0.0 in
05:50 28.7 °F 10.4 °F 1015.8 in WSW 1.6 mph 4.8 mph 32 % 0.0 in
06:00 29.2 °F 10.3 °F 1015.8 in SE 1.6 mph 4.8 mph 31 % 0.0 in
06:10 30.1 °F 10.1 °F 1015.8 in SE 1.6 mph 4.8 mph 29 % 0.0 in
06:20 30.0 °F 9.5 °F 1015.8 in SSE 3.2 mph 4.8 mph 28 % 0.0 in
06:30 30.9 °F 10.3 °F 1015.8 in SSE 1.6 mph 4.8 mph 28 % 0.0 in
06:40 31.4 °F 11.2 °F 1015.8 in WSW 1.6 mph 4.8 mph 29 % 0.0 in
06:50 31.3 °F 10.1 °F 1014.8 in SE 4.8 mph 4.8 mph 27 % 0.0 in
07:00 31.1 °F 9.3 °F 1014.8 in ESE 4.8 mph 9.7 mph 26 % 0.0 in
07:10 31.6 °F 10.3 °F 1014.8 in ENE 3.2 mph 4.8 mph 27 % 0.0 in
07:20 31.8 °F 9.9 °F 1015.8 in East 4.8 mph 8.0 mph 26 % 0.0 in
07:30 33.2 °F 11.7 °F 1015.8 in SSE 3.2 mph 6.4 mph 27 % 0.0 in
07:40 33.8 °F 10.4 °F 1015.8 in South 3.2 mph 6.4 mph 24 % 0.0 in
07:50 33.5 °F 11.4 °F 1015.8 in SSW 1.6 mph 8.0 mph 26 % 0.0 in
08:00 33.7 °F 9.7 °F 1015.8 in SW 3.2 mph 4.8 mph 23 % 0.0 in
08:10 33.7 °F 10.3 °F 1015.8 in SE 4.8 mph 4.8 mph 24 % 0.0 in
08:20 33.4 °F 8.8 °F 1015.8 in SSE 8.0 mph 8.0 mph 22 % 0.0 in
08:30 32.7 °F 8.8 °F 1015.8 in East 9.7 mph 9.7 mph 23 % 0.0 in
08:40 33.5 °F 9.5 °F 1015.8 in East 4.8 mph 9.7 mph 23 % 0.0 in
08:50 32.8 °F 8.9 °F 1014.8 in East 8.0 mph 9.7 mph 23 % 0.0 in
09:00 32.9 °F 9.0 °F 1014.8 in East 11.3 mph 14.5 mph 23 % 0.0 in
09:10 32.6 °F 8.8 °F 1014.8 in East 12.9 mph 12.9 mph 23 % 0.0 in
09:20 32.6 °F 8.8 °F 1014.8 in East 11.3 mph 11.3 mph 23 % 0.0 in
09:30 32.7 °F 8.8 °F 1014.8 in East 8.0 mph 11.3 mph 23 % 0.0 in
09:40 32.8 °F 8.9 °F 1014.8 in East 9.7 mph 11.3 mph 23 % 0.0 in
09:50 32.9 °F 9.0 °F 1014.8 in ENE 9.7 mph 19.3 mph 23 % 0.0 in
10:00 32.5 °F 8.1 °F 1014.8 in East 4.8 mph 12.9 mph 22 % 0.0 in
10:10 32.7 °F 8.2 °F 1014.8 in ESE 11.3 mph 11.3 mph 22 % 0.0 in
10:20 33.7 °F 8.3 °F 1014.8 in SE 3.2 mph 16.1 mph 21 % 0.0 in
10:30 34.9 °F 9.3 °F 1014.8 in SSW 4.8 mph 11.3 mph 21 % 0.0 in
10:40 35.1 °F 7.2 °F 1014.8 in SW 9.7 mph 9.7 mph 18 % 0.0 in
10:50 35.1 °F 8.0 °F 1014.8 in SSW 9.7 mph 12.9 mph 19 % 0.0 in
11:00 34.7 °F 7.7 °F 1014.8 in SSW 9.7 mph 14.5 mph 19 % 0.0 in
11:10 35.1 °F 6.4 °F 1014.8 in SW 4.8 mph 8.0 mph 17 % 0.0 in
11:20 35.1 °F 6.4 °F 1014.8 in WSW 9.7 mph 12.9 mph 17 % 0.0 in
11:30 34.6 °F 6.8 °F 1014.8 in SW 8.0 mph 16.1 mph 18 % 0.0 in
11:40 33.7 °F 6.1 °F 1014.8 in SW 8.0 mph 17.7 mph 18 % 0.0 in
11:50 33.7 °F 5.3 °F 1014.8 in SW 9.7 mph 17.7 mph 17 % 0.0 in
12:00 33.8 °F 6.2 °F 1014.8 in SW 4.8 mph 9.7 mph 18 % 0.0 in
12:10 33.4 °F 4.2 °F 1013.8 in SW 9.7 mph 20.9 mph 16 % 0.0 in
12:20 33.3 °F 4.1 °F 1014.8 in SW 8.0 mph 17.7 mph 16 % 0.0 in
12:30 33.2 °F 4.8 °F 1014.8 in SW 11.3 mph 12.9 mph 17 % 0.0 in
12:40 33.0 °F 4.7 °F 1013.8 in SW 9.7 mph 9.7 mph 17 % 0.0 in
12:50 33.2 °F 4.8 °F 1013.8 in SW 4.8 mph 9.7 mph 17 % 0.0 in
13:00 32.6 °F 4.4 °F 1013.8 in SW 8.0 mph 17.7 mph 17 % 0.0 in
13:10 32.4 °F 3.3 °F 1013.8 in SW 9.7 mph 19.3 mph 16 % 0.0 in
13:20 32.0 °F 3.1 °F 1013.8 in SW 8.0 mph 12.9 mph 16 % 0.0 in
13:30 31.7 °F 3.7 °F 1013.8 in SW 12.9 mph 16.1 mph 17 % 0.0 in
13:40 31.7 °F 3.7 °F 1013.8 in SW 4.8 mph 12.9 mph 17 % 0.0 in
13:50 31.0 °F 3.9 °F 1013.8 in SW 9.7 mph 17.7 mph 18 % 0.0 in
14:00 31.0 °F 3.9 °F 1013.8 in SSW 4.8 mph 14.5 mph 18 % 0.0 in
14:10 30.6 °F 3.6 °F 1013.8 in SW 9.7 mph 9.7 mph 18 % 0.0 in
14:20 30.5 °F 4.3 °F 1014.8 in SW 8.0 mph 9.7 mph 19 % 0.0 in
14:30 30.2 °F 4.0 °F 1014.8 in SW 8.0 mph 9.7 mph 19 % 0.0 in
14:40 29.9 °F 4.5 °F 1014.8 in SSW 8.0 mph 11.3 mph 20 % 0.0 in
14:50 29.8 °F 4.4 °F 1014.8 in SW 3.2 mph 11.3 mph 20 % 0.0 in
19:51 29.6 °F 4.3 °F 1014.8 in SW 3.7 mph 6.9 mph 20 % 0.0 in
19:56 29.3 °F 3.3 °F 1014.8 in SW 9.3 mph 9.3 mph 19 % 0.0 in
20:01 29.0 °F 3.1 °F 1014.8 in SW 11.1 mph 11.1 mph 19 % 0.0 in
20:06 28.9 °F 3.7 °F 1014.8 in SSE 11.1 mph 11.1 mph 20 % 0.0 in
20:11 28.9 °F 4.4 °F 1014.8 in WSW 7.9 mph 7.9 mph 21 % 0.0 in
20:16 28.7 °F 4.2 °F 1014.8 in SSW 7.4 mph 7.4 mph 21 % 0.0 in
20:21 28.5 °F 4.1 °F 1014.8 in SW 7.4 mph 7.4 mph 21 % 0.0 in
20:26 28.3 °F 3.9 °F 1014.8 in WSW 5.6 mph 5.6 mph 21 % 0.0 in
20:31 28.1 °F 3.7 °F 1014.8 in SW 13.0 mph 13.0 mph 21 % 0.0 in
20:36 27.8 °F 3.4 °F 1014.8 in SW 9.3 mph 9.3 mph 21 % 0.0 in
20:41 27.6 °F 3.3 °F 1014.8 in WSW 9.3 mph 9.3 mph 21 % 0.0 in
20:46 27.4 °F 3.1 °F 1014.8 in SW 7.4 mph 7.4 mph 21 % 0.0 in
20:51 27.2 °F 2.9 °F 1014.8 in SW 7.4 mph 7.4 mph 21 % 0.0 in
20:56 27.1 °F 3.6 °F 1014.8 in SW 7.4 mph 7.4 mph 22 % 0.0 in
21:01 26.8 °F 3.3 °F 1014.8 in SW 5.6 mph 5.6 mph 22 % 0.0 in
21:06 26.6 °F 3.1 °F 1014.8 in SW 7.4 mph 7.4 mph 22 % 0.0 in
21:11 26.4 °F 3.6 °F 1014.8 in SW 5.6 mph 5.6 mph 23 % 0.0 in
21:16 26.2 °F 3.4 °F 1014.8 in SW 4.7 mph 4.7 mph 23 % 0.0 in
21:21 26.1 °F 3.3 °F 1014.8 in West 3.7 mph 3.7 mph 23 % 0.0 in
21:26 26.0 °F 3.8 °F 1014.8 in West 1.9 mph   24 % 0.0 in
21:31 25.8 °F 3.7 °F 1014.8 in West 1.9 mph   24 % 0.0 in
21:36 25.7 °F 3.6 °F 1014.8 in NW 3.7 mph 3.7 mph 24 % 0.0 in
21:41 25.6 °F 4.1 °F 1014.8 in Calm     25 % 0.0 in
21:46 25.5 °F 4.0 °F 1014.8 in NNE 2.6 mph 2.6 mph 25 % 0.0 in
21:51 25.4 °F 3.9 °F 1014.8 in NNE 2.6 mph   25 % 0.0 in
21:56 25.4 °F 3.9 °F 1014.8 in Calm     25 % 0.0 in
22:01 25.3 °F 3.8 °F 1014.8 in Calm     25 % 0.0 in
22:06 25.3 °F 3.8 °F 1014.8 in Calm     25 % 0.0 in
22:11 25.1 °F 3.7 °F 1014.8 in WSW 2.6 mph 3.2 mph 25 % 0.0 in
22:16 25.1 °F 3.7 °F 1014.8 in WNW 1.9 mph   25 % 0.0 in
22:21 25.0 °F 3.6 °F 1014.8 in WSW 3.7 mph 3.7 mph 25 % 0.0 in
22:26 25.0 °F 3.6 °F 1014.8 in SW 2.6 mph 2.6 mph 25 % 0.0 in
22:31 24.9 °F 4.1 °F 1015.8 in West 1.9 mph 1.9 mph 26 % 0.0 in
22:36 24.8 °F 4.0 °F 1015.8 in Calm     26 % 0.0 in
22:41 24.7 °F 3.9 °F 1015.8 in Calm     26 % 0.0 in
22:46 24.6 °F 3.8 °F 1015.8 in Calm     26 % 0.0 in
22:50 19.5 °F 6.2 °F 1015.8 in SW 1.6 mph 3.2 mph 42 % 0.0 in
22:51 24.4 °F 3.7 °F 1015.8 in Calm     26 % 0.0 in
22:56 24.3 °F 3.6 °F 1015.8 in Calm     26 % 0.0 in
23:00 19.5 °F 6.6 °F 1015.8 in Calm   1.6 mph 43 % 0.0 in
23:01 24.2 °F 4.0 °F 1015.8 in Calm     27 % 0.0 in
23:06 24.1 °F 3.9 °F 1015.8 in Calm     27 % 0.0 in
23:10 19.4 °F 6.5 °F 1015.8 in SW 1.6 mph 3.2 mph 43 % 0.0 in
23:11 24.0 °F 3.8 °F 1015.8 in West 1.4 mph   27 % 0.0 in
23:16 24.0 °F 4.3 °F 1015.8 in Calm     28 % 0.0 in
23:20 19.5 °F 6.6 °F 1015.8 in SW 3.2 mph 3.2 mph 43 % 0.0 in
23:21 23.9 °F 4.3 °F 1015.8 in SW 1.9 mph 1.9 mph 28 % 0.0 in
23:26 23.8 °F 4.7 °F 1015.8 in Calm     29 % 0.0 in
23:30 19.6 °F 7.0 °F 1015.8 in Calm   3.2 mph 44 % 0.0 in
23:31 23.6 °F 4.5 °F 1015.8 in SW 1.9 mph 1.9 mph 29 % 0.0 in
23:36 23.5 °F 4.4 °F 1015.8 in Calm     29 % 0.0 in
23:40 19.5 °F 7.2 °F 1015.8 in Calm   3.2 mph 45 % 0.0 in
23:41 23.4 °F 4.8 °F 1015.8 in Calm     30 % 0.0 in
23:47 23.3 °F 5.2 °F 1015.8 in Calm     31 % 0.0 in
23:50 19.2 °F 6.7 °F 1015.8 in WSW 1.6 mph 3.2 mph 44 % 0.0 in
23:52 23.2 °F 5.6 °F 1015.8 in SW 1.4 mph   32 % 0.0 in
23:57 23.0 °F 5.8 °F 1015.8 in Calm     33 % 0.0 in
Meteo Sesrovires
Elogis d' Weather Underground - 1.5 mb

Guio original per  Jim McMurry - jmcmurry@mwt.net Adaptat per a la plantilla per  Wim van der Kuil - Leuven-Template.eu

Trobareu la nostra informacio del temps tambe a:

Weather Underground

AWEKAS